sensor_id;sensor_type;location;lat;lon;timestamp;P1;durP1;ratioP1;P2;durP2;ratioP2
26806;SDS011;14380;49.910;6.792;2023-06-22T00:01:20;1.90;;;1.15;;
26806;SDS011;14380;49.910;6.792;2023-06-22T00:03:47;1.52;;;1.08;;
26806;SDS011;14380;49.910;6.792;2023-06-22T00:06:14;0.82;;;0.80;;
26806;SDS011;14380;49.910;6.792;2023-06-22T00:08:40;2.72;;;1.13;;
26806;SDS011;14380;49.910;6.792;2023-06-22T00:11:07;0.88;;;0.85;;
26806;SDS011;14380;49.910;6.792;2023-06-22T00:13:35;1.77;;;1.25;;
26806;SDS011;14380;49.910;6.792;2023-06-22T00:16:02;1.15;;;0.98;;
26806;SDS011;14380;49.910;6.792;2023-06-22T00:18:28;1.23;;;0.85;;
26806;SDS011;14380;49.910;6.792;2023-06-22T00:20:55;1.27;;;1.13;;
26806;SDS011;14380;49.910;6.792;2023-06-22T00:23:23;1.70;;;1.40;;
26806;SDS011;14380;49.910;6.792;2023-06-22T00:25:50;2.13;;;1.73;;
26806;SDS011;14380;49.910;6.792;2023-06-22T00:28:17;1.38;;;1.27;;
26806;SDS011;14380;49.910;6.792;2023-06-22T00:30:45;2.22;;;1.20;;
26806;SDS011;14380;49.910;6.792;2023-06-22T00:33:12;1.45;;;1.08;;
26806;SDS011;14380;49.910;6.792;2023-06-22T00:35:39;1.05;;;0.98;;
26806;SDS011;14380;49.910;6.792;2023-06-22T00:38:06;1.17;;;1.08;;
26806;SDS011;14380;49.910;6.792;2023-06-22T00:40:33;1.60;;;1.10;;
26806;SDS011;14380;49.910;6.792;2023-06-22T00:43:00;1.35;;;1.25;;
26806;SDS011;14380;49.910;6.792;2023-06-22T00:45:26;1.48;;;1.33;;
26806;SDS011;14380;49.910;6.792;2023-06-22T00:47:55;1.45;;;1.10;;
26806;SDS011;14380;49.910;6.792;2023-06-22T00:50:24;2.03;;;1.52;;
26806;SDS011;14380;49.910;6.792;2023-06-22T00:52:53;1.92;;;1.48;;
26806;SDS011;14380;49.910;6.792;2023-06-22T00:55:21;2.47;;;1.30;;
26806;SDS011;14380;49.910;6.792;2023-06-22T00:57:49;1.27;;;1.00;;
26806;SDS011;14380;49.910;6.792;2023-06-22T01:00:20;1.30;;;1.20;;
26806;SDS011;14380;49.910;6.792;2023-06-22T01:02:49;1.30;;;1.20;;
26806;SDS011;14380;49.910;6.792;2023-06-22T01:05:19;2.22;;;1.30;;
26806;SDS011;14380;49.910;6.792;2023-06-22T01:07:51;1.45;;;1.17;;
26806;SDS011;14380;49.910;6.792;2023-06-22T01:10:25;2.00;;;1.05;;
26806;SDS011;14380;49.910;6.792;2023-06-22T01:12:58;1.38;;;1.27;;
26806;SDS011;14380;49.910;6.792;2023-06-22T01:15:31;2.42;;;1.85;;
26806;SDS011;14380;49.910;6.792;2023-06-22T01:18:03;2.08;;;1.52;;
26806;SDS011;14380;49.910;6.792;2023-06-22T01:20:33;1.60;;;1.50;;
26806;SDS011;14380;49.910;6.792;2023-06-22T01:23:04;3.55;;;2.42;;
26806;SDS011;14380;49.910;6.792;2023-06-22T01:25:36;3.80;;;1.80;;
26806;SDS011;14380;49.910;6.792;2023-06-22T01:28:14;2.97;;;2.10;;
26806;SDS011;14380;49.910;6.792;2023-06-22T01:30:51;2.53;;;2.33;;
26806;SDS011;14380;49.910;6.792;2023-06-22T01:33:28;2.35;;;2.15;;
26806;SDS011;14380;49.910;6.792;2023-06-22T01:35:58;3.38;;;2.70;;
26806;SDS011;14380;49.910;6.792;2023-06-22T01:38:25;3.38;;;2.13;;
26806;SDS011;14380;49.910;6.792;2023-06-22T01:40:53;2.85;;;2.35;;
26806;SDS011;14380;49.910;6.792;2023-06-22T01:43:21;3.47;;;2.13;;
26806;SDS011;14380;49.910;6.792;2023-06-22T01:45:49;2.33;;;1.80;;
26806;SDS011;14380;49.910;6.792;2023-06-22T01:48:18;4.95;;;2.80;;
26806;SDS011;14380;49.910;6.792;2023-06-22T01:50:45;3.13;;;2.40;;
26806;SDS011;14380;49.910;6.792;2023-06-22T01:53:12;4.97;;;2.92;;
26806;SDS011;14380;49.910;6.792;2023-06-22T01:55:39;4.38;;;2.50;;
26806;SDS011;14380;49.910;6.792;2023-06-22T01:58:05;3.35;;;2.72;;
26806;SDS011;14380;49.910;6.792;2023-06-22T02:00:33;3.05;;;2.47;;
26806;SDS011;14380;49.910;6.792;2023-06-22T02:03:05;5.03;;;4.13;;
26806;SDS011;14380;49.910;6.792;2023-06-22T02:05:38;5.43;;;4.22;;
26806;SDS011;14380;49.910;6.792;2023-06-22T02:08:09;4.72;;;3.80;;
26806;SDS011;14380;49.910;6.792;2023-06-22T02:10:41;5.85;;;4.07;;
26806;SDS011;14380;49.910;6.792;2023-06-22T02:13:10;6.20;;;4.10;;
26806;SDS011;14380;49.910;6.792;2023-06-22T02:15:37;7.35;;;4.30;;
26806;SDS011;14380;49.910;6.792;2023-06-22T02:18:04;5.05;;;4.13;;
26806;SDS011;14380;49.910;6.792;2023-06-22T02:20:31;6.22;;;4.40;;
26806;SDS011;14380;49.910;6.792;2023-06-22T02:22:59;4.70;;;2.70;;
26806;SDS011;14380;49.910;6.792;2023-06-22T02:25:26;3.40;;;2.95;;
26806;SDS011;14380;49.910;6.792;2023-06-22T02:27:52;5.20;;;2.80;;
26806;SDS011;14380;49.910;6.792;2023-06-22T02:30:19;5.07;;;3.42;;
26806;SDS011;14380;49.910;6.792;2023-06-22T02:32:45;3.90;;;3.25;;
26806;SDS011;14380;49.910;6.792;2023-06-22T02:35:12;3.50;;;2.70;;
26806;SDS011;14380;49.910;6.792;2023-06-22T02:37:38;3.70;;;3.00;;
26806;SDS011;14380;49.910;6.792;2023-06-22T02:40:08;4.18;;;3.00;;
26806;SDS011;14380;49.910;6.792;2023-06-22T02:42:35;5.03;;;3.67;;
26806;SDS011;14380;49.910;6.792;2023-06-22T02:45:02;4.47;;;3.20;;
26806;SDS011;14380;49.910;6.792;2023-06-22T02:47:29;6.57;;;3.00;;
26806;SDS011;14380;49.910;6.792;2023-06-22T02:49:55;4.40;;;3.00;;
26806;SDS011;14380;49.910;6.792;2023-06-22T02:52:22;4.32;;;3.03;;
26806;SDS011;14380;49.910;6.792;2023-06-22T02:54:48;3.33;;;2.72;;
26806;SDS011;14380;49.910;6.792;2023-06-22T02:57:16;4.13;;;3.33;;
26806;SDS011;14380;49.910;6.792;2023-06-22T02:59:43;7.32;;;3.60;;
26806;SDS011;14380;49.910;6.792;2023-06-22T03:02:09;4.65;;;3.33;;
26806;SDS011;14380;49.910;6.792;2023-06-22T03:04:36;3.78;;;2.63;;
26806;SDS011;14380;49.910;6.792;2023-06-22T03:07:02;3.42;;;2.40;;
26806;SDS011;14380;49.910;6.792;2023-06-22T03:09:29;5.63;;;3.22;;
26806;SDS011;14380;49.910;6.792;2023-06-22T03:11:56;3.05;;;2.75;;
26806;SDS011;14380;49.910;6.792;2023-06-22T03:14:24;3.42;;;2.38;;
26806;SDS011;14380;49.910;6.792;2023-06-22T03:16:51;3.17;;;2.50;;
26806;SDS011;14380;49.910;6.792;2023-06-22T03:19:17;4.20;;;3.20;;
26806;SDS011;14380;49.910;6.792;2023-06-22T03:21:44;4.13;;;2.70;;
26806;SDS011;14380;49.910;6.792;2023-06-22T03:24:11;4.20;;;3.28;;
26806;SDS011;14380;49.910;6.792;2023-06-22T03:26:37;5.13;;;3.83;;
26806;SDS011;14380;49.910;6.792;2023-06-22T03:29:04;3.90;;;3.00;;
26806;SDS011;14380;49.910;6.792;2023-06-22T03:31:31;3.55;;;2.50;;
26806;SDS011;14380;49.910;6.792;2023-06-22T03:33:58;4.65;;;2.55;;
26806;SDS011;14380;49.910;6.792;2023-06-22T03:36:24;3.05;;;2.22;;
26806;SDS011;14380;49.910;6.792;2023-06-22T03:38:51;3.28;;;2.60;;
26806;SDS011;14380;49.910;6.792;2023-06-22T03:41:17;2.65;;;2.20;;
26806;SDS011;14380;49.910;6.792;2023-06-22T03:43:44;2.75;;;2.30;;
26806;SDS011;14380;49.910;6.792;2023-06-22T03:46:10;4.93;;;2.80;;
26806;SDS011;14380;49.910;6.792;2023-06-22T03:48:38;3.38;;;2.60;;
26806;SDS011;14380;49.910;6.792;2023-06-22T03:51:05;4.68;;;3.00;;
26806;SDS011;14380;49.910;6.792;2023-06-22T03:53:31;3.35;;;2.10;;
26806;SDS011;14380;49.910;6.792;2023-06-22T03:55:58;3.05;;;2.08;;
26806;SDS011;14380;49.910;6.792;2023-06-22T03:58:24;2.85;;;2.50;;
26806;SDS011;14380;49.910;6.792;2023-06-22T04:00:51;3.25;;;2.35;;
26806;SDS011;14380;49.910;6.792;2023-06-22T04:03:19;4.50;;;2.30;;
26806;SDS011;14380;49.910;6.792;2023-06-22T04:05:47;4.38;;;2.42;;
26806;SDS011;14380;49.910;6.792;2023-06-22T04:08:15;3.78;;;2.85;;
26806;SDS011;14380;49.910;6.792;2023-06-22T04:10:46;3.90;;;2.28;;
26806;SDS011;14380;49.910;6.792;2023-06-22T04:13:16;4.57;;;2.70;;
26806;SDS011;14380;49.910;6.792;2023-06-22T04:15:48;2.88;;;2.42;;
26806;SDS011;14380;49.910;6.792;2023-06-22T04:18:17;3.40;;;2.50;;
26806;SDS011;14380;49.910;6.792;2023-06-22T04:20:44;3.78;;;2.90;;
26806;SDS011;14380;49.910;6.792;2023-06-22T04:23:13;3.55;;;2.28;;
26806;SDS011;14380;49.910;6.792;2023-06-22T04:25:39;3.30;;;2.42;;
26806;SDS011;14380;49.910;6.792;2023-06-22T04:28:06;2.50;;;2.10;;
26806;SDS011;14380;49.910;6.792;2023-06-22T04:30:37;3.95;;;2.83;;
26806;SDS011;14380;49.910;6.792;2023-06-22T04:33:11;3.13;;;2.53;;
26806;SDS011;14380;49.910;6.792;2023-06-22T04:35:37;3.55;;;2.90;;
26806;SDS011;14380;49.910;6.792;2023-06-22T04:38:06;2.92;;;2.50;;
26806;SDS011;14380;49.910;6.792;2023-06-22T04:40:34;2.53;;;2.28;;
26806;SDS011;14380;49.910;6.792;2023-06-22T04:43:00;3.20;;;2.90;;
26806;SDS011;14380;49.910;6.792;2023-06-22T04:45:28;4.00;;;2.88;;
26806;SDS011;14380;49.910;6.792;2023-06-22T04:47:55;5.47;;;3.25;;
26806;SDS011;14380;49.910;6.792;2023-06-22T04:50:21;4.70;;;3.03;;
26806;SDS011;14380;49.910;6.792;2023-06-22T04:52:48;3.20;;;2.60;;
26806;SDS011;14380;49.910;6.792;2023-06-22T04:55:15;3.28;;;2.85;;
26806;SDS011;14380;49.910;6.792;2023-06-22T04:57:44;4.60;;;3.20;;
26806;SDS011;14380;49.910;6.792;2023-06-22T05:00:14;4.00;;;2.85;;
26806;SDS011;14380;49.910;6.792;2023-06-22T05:02:42;3.92;;;3.08;;
26806;SDS011;14380;49.910;6.792;2023-06-22T05:05:10;3.33;;;2.53;;
26806;SDS011;14380;49.910;6.792;2023-06-22T05:07:39;3.92;;;2.88;;
26806;SDS011;14380;49.910;6.792;2023-06-22T05:10:07;3.83;;;3.15;;
26806;SDS011;14380;49.910;6.792;2023-06-22T05:12:35;5.47;;;3.75;;
26806;SDS011;14380;49.910;6.792;2023-06-22T05:15:03;6.50;;;3.63;;
26806;SDS011;14380;49.910;6.792;2023-06-22T05:17:29;5.05;;;3.50;;
26806;SDS011;14380;49.910;6.792;2023-06-22T05:19:56;3.58;;;2.75;;
26806;SDS011;14380;49.910;6.792;2023-06-22T05:22:23;3.88;;;2.97;;
26806;SDS011;14380;49.910;6.792;2023-06-22T05:24:49;3.17;;;2.58;;
26806;SDS011;14380;49.910;6.792;2023-06-22T05:27:15;5.05;;;2.97;;
26806;SDS011;14380;49.910;6.792;2023-06-22T05:29:42;3.97;;;2.88;;
26806;SDS011;14380;49.910;6.792;2023-06-22T05:32:10;5.53;;;3.20;;
26806;SDS011;14380;49.910;6.792;2023-06-22T05:34:36;3.63;;;2.33;;
26806;SDS011;14380;49.910;6.792;2023-06-22T05:37:03;3.88;;;2.72;;
26806;SDS011;14380;49.910;6.792;2023-06-22T05:39:30;3.97;;;2.63;;
26806;SDS011;14380;49.910;6.792;2023-06-22T05:41:56;5.35;;;3.05;;
26806;SDS011;14380;49.910;6.792;2023-06-22T05:44:23;9.82;;;2.90;;
26806;SDS011;14380;49.910;6.792;2023-06-22T05:46:49;2.90;;;2.20;;
26806;SDS011;14380;49.910;6.792;2023-06-22T05:49:17;6.93;;;2.50;;
26806;SDS011;14380;49.910;6.792;2023-06-22T05:51:44;3.38;;;2.92;;
26806;SDS011;14380;49.910;6.792;2023-06-22T05:54:10;3.70;;;2.80;;
26806;SDS011;14380;49.910;6.792;2023-06-22T05:56:38;6.72;;;3.13;;
26806;SDS011;14380;49.910;6.792;2023-06-22T05:59:05;3.72;;;2.78;;
26806;SDS011;14380;49.910;6.792;2023-06-22T06:01:31;4.93;;;3.28;;
26806;SDS011;14380;49.910;6.792;2023-06-22T06:04:00;2.78;;;2.40;;
26806;SDS011;14380;49.910;6.792;2023-06-22T06:06:30;3.72;;;2.80;;
26806;SDS011;14380;49.910;6.792;2023-06-22T06:08:56;4.57;;;2.97;;
26806;SDS011;14380;49.910;6.792;2023-06-22T06:11:24;4.25;;;3.03;;
26806;SDS011;14380;49.910;6.792;2023-06-22T06:13:51;3.65;;;2.90;;
26806;SDS011;14380;49.910;6.792;2023-06-22T06:16:17;3.85;;;3.17;;
26806;SDS011;14380;49.910;6.792;2023-06-22T06:18:44;3.50;;;2.78;;
26806;SDS011;14380;49.910;6.792;2023-06-22T06:21:10;3.95;;;3.05;;
26806;SDS011;14380;49.910;6.792;2023-06-22T06:23:38;5.53;;;3.17;;
26806;SDS011;14380;49.910;6.792;2023-06-22T06:26:04;5.53;;;3.45;;
26806;SDS011;14380;49.910;6.792;2023-06-22T06:28:32;8.13;;;3.60;;
26806;SDS011;14380;49.910;6.792;2023-06-22T06:30:58;3.95;;;3.00;;
26806;SDS011;14380;49.910;6.792;2023-06-22T06:33:25;4.88;;;3.05;;
26806;SDS011;14380;49.910;6.792;2023-06-22T06:35:51;5.55;;;3.05;;
26806;SDS011;14380;49.910;6.792;2023-06-22T06:38:18;3.20;;;2.20;;
26806;SDS011;14380;49.910;6.792;2023-06-22T06:40:45;3.38;;;2.75;;
26806;SDS011;14380;49.910;6.792;2023-06-22T06:43:14;4.03;;;3.00;;
26806;SDS011;14380;49.910;6.792;2023-06-22T06:45:40;4.38;;;2.97;;
26806;SDS011;14380;49.910;6.792;2023-06-22T06:48:07;4.43;;;2.88;;
26806;SDS011;14380;49.910;6.792;2023-06-22T06:50:34;4.20;;;3.00;;
26806;SDS011;14380;49.910;6.792;2023-06-22T06:53:00;4.22;;;3.25;;
26806;SDS011;14380;49.910;6.792;2023-06-22T06:55:27;3.90;;;3.15;;
26806;SDS011;14380;49.910;6.792;2023-06-22T06:57:59;4.05;;;2.65;;
26806;SDS011;14380;49.910;6.792;2023-06-22T07:00:25;4.10;;;2.83;;
26806;SDS011;14380;49.910;6.792;2023-06-22T07:02:52;3.05;;;2.45;;
26806;SDS011;14380;49.910;6.792;2023-06-22T07:05:19;3.63;;;2.60;;
26806;SDS011;14380;49.910;6.792;2023-06-22T07:07:45;3.85;;;2.70;;
26806;SDS011;14380;49.910;6.792;2023-06-22T07:10:12;4.25;;;2.80;;
26806;SDS011;14380;49.910;6.792;2023-06-22T07:12:38;3.38;;;2.45;;
26806;SDS011;14380;49.910;6.792;2023-06-22T07:15:07;3.33;;;2.80;;
26806;SDS011;14380;49.910;6.792;2023-06-22T07:17:35;4.20;;;2.85;;
26806;SDS011;14380;49.910;6.792;2023-06-22T07:20:02;4.95;;;3.42;;
26806;SDS011;14380;49.910;6.792;2023-06-22T07:22:33;3.65;;;2.83;;
26806;SDS011;14380;49.910;6.792;2023-06-22T07:25:00;3.92;;;2.78;;
26806;SDS011;14380;49.910;6.792;2023-06-22T07:27:26;6.03;;;2.95;;
26806;SDS011;14380;49.910;6.792;2023-06-22T07:29:53;4.38;;;2.50;;
26806;SDS011;14380;49.910;6.792;2023-06-22T07:32:21;3.70;;;2.70;;
26806;SDS011;14380;49.910;6.792;2023-06-22T07:34:48;3.63;;;2.63;;
26806;SDS011;14380;49.910;6.792;2023-06-22T07:37:15;4.80;;;2.80;;
26806;SDS011;14380;49.910;6.792;2023-06-22T07:39:41;3.42;;;2.70;;
26806;SDS011;14380;49.910;6.792;2023-06-22T07:42:08;4.10;;;3.33;;
26806;SDS011;14380;49.910;6.792;2023-06-22T07:44:35;4.38;;;2.90;;
26806;SDS011;14380;49.910;6.792;2023-06-22T07:47:01;3.33;;;2.58;;
26806;SDS011;14380;49.910;6.792;2023-06-22T07:49:29;4.43;;;2.97;;
26806;SDS011;14380;49.910;6.792;2023-06-22T07:51:56;5.40;;;2.85;;
26806;SDS011;14380;49.910;6.792;2023-06-22T07:54:22;5.70;;;3.33;;
26806;SDS011;14380;49.910;6.792;2023-06-22T07:56:49;4.65;;;2.40;;
26806;SDS011;14380;49.910;6.792;2023-06-22T07:59:15;3.80;;;2.83;;
26806;SDS011;14380;49.910;6.792;2023-06-22T08:01:42;6.10;;;3.38;;
26806;SDS011;14380;49.910;6.792;2023-06-22T08:04:08;4.30;;;3.05;;
26806;SDS011;14380;49.910;6.792;2023-06-22T08:06:36;4.00;;;2.83;;
26806;SDS011;14380;49.910;6.792;2023-06-22T08:09:03;4.28;;;2.75;;
26806;SDS011;14380;49.910;6.792;2023-06-22T08:11:29;3.13;;;2.22;;
26806;SDS011;14380;49.910;6.792;2023-06-22T08:13:56;4.60;;;3.13;;
26806;SDS011;14380;49.910;6.792;2023-06-22T08:16:23;5.50;;;3.10;;
26806;SDS011;14380;49.910;6.792;2023-06-22T08:18:50;3.22;;;2.50;;
26806;SDS011;14380;49.910;6.792;2023-06-22T08:21:16;3.83;;;2.65;;
26806;SDS011;14380;49.910;6.792;2023-06-22T08:23:44;3.13;;;2.45;;
26806;SDS011;14380;49.910;6.792;2023-06-22T08:26:11;3.00;;;2.50;;
26806;SDS011;14380;49.910;6.792;2023-06-22T08:28:37;6.47;;;2.80;;
26806;SDS011;14380;49.910;6.792;2023-06-22T08:31:04;3.50;;;2.70;;
26806;SDS011;14380;49.910;6.792;2023-06-22T08:33:30;3.15;;;2.55;;
26806;SDS011;14380;49.910;6.792;2023-06-22T08:35:57;2.40;;;2.20;;
26806;SDS011;14380;49.910;6.792;2023-06-22T08:38:24;3.08;;;2.55;;
26806;SDS011;14380;49.910;6.792;2023-06-22T08:40:52;4.68;;;2.70;;
26806;SDS011;14380;49.910;6.792;2023-06-22T08:43:18;3.97;;;2.80;;
26806;SDS011;14380;49.910;6.792;2023-06-22T08:45:45;3.33;;;2.50;;
26806;SDS011;14380;49.910;6.792;2023-06-22T08:48:11;2.97;;;2.47;;
26806;SDS011;14380;49.910;6.792;2023-06-22T08:50:38;3.83;;;2.63;;
26806;SDS011;14380;49.910;6.792;2023-06-22T08:53:05;3.60;;;2.50;;
26806;SDS011;14380;49.910;6.792;2023-06-22T08:55:33;2.65;;;2.03;;
26806;SDS011;14380;49.910;6.792;2023-06-22T08:58:01;3.38;;;2.75;;
26806;SDS011;14380;49.910;6.792;2023-06-22T09:00:28;3.38;;;2.72;;
26806;SDS011;14380;49.910;6.792;2023-06-22T09:02:58;4.43;;;2.97;;
26806;SDS011;14380;49.910;6.792;2023-06-22T09:05:24;3.92;;;2.60;;
26806;SDS011;14380;49.910;6.792;2023-06-22T09:07:51;3.88;;;2.60;;
26806;SDS011;14380;49.910;6.792;2023-06-22T09:10:19;4.03;;;2.70;;
26806;SDS011;14380;49.910;6.792;2023-06-22T09:12:46;2.75;;;2.00;;
26806;SDS011;14380;49.910;6.792;2023-06-22T09:15:14;3.22;;;1.92;;
26806;SDS011;14380;49.910;6.792;2023-06-22T09:17:41;2.78;;;2.22;;
26806;SDS011;14380;49.910;6.792;2023-06-22T09:20:08;3.47;;;2.47;;
26806;SDS011;14380;49.910;6.792;2023-06-22T09:22:36;2.33;;;2.13;;
26806;SDS011;14380;49.910;6.792;2023-06-22T09:25:03;5.32;;;2.60;;
26806;SDS011;14380;49.910;6.792;2023-06-22T09:27:30;5.30;;;2.30;;
26806;SDS011;14380;49.910;6.792;2023-06-22T09:29:56;3.88;;;3.00;;
26806;SDS011;14380;49.910;6.792;2023-06-22T09:32:25;5.95;;;3.40;;
26806;SDS011;14380;49.910;6.792;2023-06-22T09:34:52;5.32;;;1.95;;
26806;SDS011;14380;49.910;6.792;2023-06-22T09:37:18;4.53;;;2.38;;
26806;SDS011;14380;49.910;6.792;2023-06-22T09:39:45;5.30;;;3.47;;
26806;SDS011;14380;49.910;6.792;2023-06-22T09:42:11;3.47;;;2.30;;
26806;SDS011;14380;49.910;6.792;2023-06-22T09:44:38;3.72;;;2.80;;
26806;SDS011;14380;49.910;6.792;2023-06-22T09:47:05;3.15;;;2.28;;
26806;SDS011;14380;49.910;6.792;2023-06-22T09:49:33;3.45;;;2.65;;
26806;SDS011;14380;49.910;6.792;2023-06-22T09:52:00;5.03;;;3.42;;
26806;SDS011;14380;49.910;6.792;2023-06-22T09:54:26;4.25;;;3.45;;
26806;SDS011;14380;49.910;6.792;2023-06-22T09:56:53;3.35;;;2.65;;
26806;SDS011;14380;49.910;6.792;2023-06-22T09:59:19;3.72;;;2.80;;
26806;SDS011;14380;49.910;6.792;2023-06-22T10:01:46;6.25;;;3.65;;
26806;SDS011;14380;49.910;6.792;2023-06-22T10:04:12;3.30;;;3.00;;
26806;SDS011;14380;49.910;6.792;2023-06-22T10:06:40;3.97;;;3.05;;
26806;SDS011;14380;49.910;6.792;2023-06-22T10:09:07;4.93;;;3.17;;
26806;SDS011;14380;49.910;6.792;2023-06-22T10:11:33;3.30;;;2.65;;
26806;SDS011;14380;49.910;6.792;2023-06-22T10:14:00;5.18;;;3.63;;
26806;SDS011;14380;49.910;6.792;2023-06-22T10:16:30;4.15;;;2.85;;
26806;SDS011;14380;49.910;6.792;2023-06-22T10:18:57;7.85;;;3.83;;
26806;SDS011;14380;49.910;6.792;2023-06-22T10:21:23;5.40;;;3.22;;
26806;SDS011;14380;49.910;6.792;2023-06-22T10:23:53;3.95;;;3.08;;
26806;SDS011;14380;49.910;6.792;2023-06-22T10:26:20;4.93;;;3.10;;
26806;SDS011;14380;49.910;6.792;2023-06-22T10:28:46;4.50;;;3.05;;
26806;SDS011;14380;49.910;6.792;2023-06-22T10:31:12;6.28;;;3.53;;
26806;SDS011;14380;49.910;6.792;2023-06-22T10:33:41;4.47;;;2.80;;
26806;SDS011;14380;49.910;6.792;2023-06-22T10:36:09;5.10;;;3.03;;
26806;SDS011;14380;49.910;6.792;2023-06-22T10:38:35;3.75;;;2.50;;
26806;SDS011;14380;49.910;6.792;2023-06-22T10:41:03;3.65;;;2.85;;
26806;SDS011;14380;49.910;6.792;2023-06-22T10:43:30;5.40;;;2.90;;
26806;SDS011;14380;49.910;6.792;2023-06-22T10:45:56;6.68;;;3.17;;
26806;SDS011;14380;49.910;6.792;2023-06-22T10:48:23;4.50;;;2.45;;
26806;SDS011;14380;49.910;6.792;2023-06-22T10:50:49;3.42;;;2.30;;
26806;SDS011;14380;49.910;6.792;2023-06-22T10:53:16;3.17;;;2.60;;
26806;SDS011;14380;49.910;6.792;2023-06-22T10:55:42;3.30;;;2.53;;
26806;SDS011;14380;49.910;6.792;2023-06-22T10:58:10;3.72;;;2.78;;
26806;SDS011;14380;49.910;6.792;2023-06-22T11:00:36;3.22;;;2.33;;
26806;SDS011;14380;49.910;6.792;2023-06-22T11:03:03;3.78;;;2.50;;
26806;SDS011;14380;49.910;6.792;2023-06-22T11:05:29;2.70;;;2.40;;
26806;SDS011;14380;49.910;6.792;2023-06-22T11:07:56;3.80;;;2.85;;
26806;SDS011;14380;49.910;6.792;2023-06-22T11:10:22;3.25;;;2.00;;
26806;SDS011;14380;49.910;6.792;2023-06-22T11:12:49;3.47;;;2.30;;
26806;SDS011;14380;49.910;6.792;2023-06-22T11:15:17;3.60;;;2.70;;
26806;SDS011;14380;49.910;6.792;2023-06-22T11:17:43;3.78;;;2.78;;
26806;SDS011;14380;49.910;6.792;2023-06-22T11:20:10;5.35;;;2.85;;
26806;SDS011;14380;49.910;6.792;2023-06-22T11:22:37;3.38;;;2.30;;
26806;SDS011;14380;49.910;6.792;2023-06-22T11:25:04;3.35;;;2.55;;
26806;SDS011;14380;49.910;6.792;2023-06-22T11:27:31;4.05;;;2.80;;
26806;SDS011;14380;49.910;6.792;2023-06-22T11:29:58;4.75;;;3.08;;
26806;SDS011;14380;49.910;6.792;2023-06-22T11:32:26;2.60;;;2.40;;
26806;SDS011;14380;49.910;6.792;2023-06-22T11:34:52;2.97;;;2.47;;
26806;SDS011;14380;49.910;6.792;2023-06-22T11:37:19;3.45;;;2.53;;
26806;SDS011;14380;49.910;6.792;2023-06-22T11:39:45;3.25;;;2.35;;
26806;SDS011;14380;49.910;6.792;2023-06-22T11:42:12;3.47;;;2.80;;
26806;SDS011;14380;49.910;6.792;2023-06-22T11:44:38;4.75;;;2.80;;
26806;SDS011;14380;49.910;6.792;2023-06-22T11:47:05;2.50;;;2.30;;
26806;SDS011;14380;49.910;6.792;2023-06-22T11:49:33;2.42;;;2.22;;
26806;SDS011;14380;49.910;6.792;2023-06-22T11:51:59;3.97;;;2.28;;
26806;SDS011;14380;49.910;6.792;2023-06-22T11:54:26;3.65;;;2.58;;
26806;SDS011;14380;49.910;6.792;2023-06-22T11:56:52;3.83;;;2.35;;
26806;SDS011;14380;49.910;6.792;2023-06-22T11:59:19;3.85;;;3.13;;
26806;SDS011;14380;49.910;6.792;2023-06-22T12:01:47;3.35;;;2.70;;
26806;SDS011;14380;49.910;6.792;2023-06-22T12:04:15;2.55;;;1.90;;
26806;SDS011;14380;49.910;6.792;2023-06-22T12:06:43;2.53;;;2.22;;
26806;SDS011;14380;49.910;6.792;2023-06-22T12:09:10;2.60;;;2.25;;
26806;SDS011;14380;49.910;6.792;2023-06-22T12:11:38;3.97;;;2.65;;
26806;SDS011;14380;49.910;6.792;2023-06-22T12:14:05;3.50;;;2.65;;
26806;SDS011;14380;49.910;6.792;2023-06-22T12:16:31;4.22;;;3.05;;
26806;SDS011;14380;49.910;6.792;2023-06-22T12:18:58;4.10;;;2.33;;
26806;SDS011;14380;49.910;6.792;2023-06-22T12:21:24;5.80;;;3.50;;
26806;SDS011;14380;49.910;6.792;2023-06-22T12:23:52;2.58;;;2.28;;
26806;SDS011;14380;49.910;6.792;2023-06-22T12:26:18;3.80;;;2.50;;
26806;SDS011;14380;49.910;6.792;2023-06-22T12:28:45;2.97;;;2.10;;
26806;SDS011;14380;49.910;6.792;2023-06-22T12:31:12;2.42;;;2.05;;
26806;SDS011;14380;49.910;6.792;2023-06-22T12:33:39;2.45;;;2.03;;
26806;SDS011;14380;49.910;6.792;2023-06-22T12:36:05;4.07;;;3.15;;
26806;SDS011;14380;49.910;6.792;2023-06-22T12:38:32;3.70;;;2.60;;
26806;SDS011;14380;49.910;6.792;2023-06-22T12:41:00;3.13;;;2.33;;
26806;SDS011;14380;49.910;6.792;2023-06-22T12:43:27;3.67;;;2.78;;
26806;SDS011;14380;49.910;6.792;2023-06-22T12:45:53;3.05;;;2.17;;
26806;SDS011;14380;49.910;6.792;2023-06-22T12:48:21;2.65;;;2.15;;
26806;SDS011;14380;49.910;6.792;2023-06-22T12:50:47;5.22;;;2.78;;
26806;SDS011;14380;49.910;6.792;2023-06-22T12:53:14;4.15;;;2.85;;
26806;SDS011;14380;49.910;6.792;2023-06-22T12:55:40;3.03;;;2.50;;
26806;SDS011;14380;49.910;6.792;2023-06-22T12:58:08;3.47;;;2.67;;
26806;SDS011;14380;49.910;6.792;2023-06-22T13:00:35;4.55;;;2.50;;
26806;SDS011;14380;49.910;6.792;2023-06-22T13:03:01;3.88;;;2.45;;
26806;SDS011;14380;49.910;6.792;2023-06-22T13:05:28;3.55;;;2.50;;
26806;SDS011;14380;49.910;6.792;2023-06-22T13:07:55;3.00;;;2.65;;
26806;SDS011;14380;49.910;6.792;2023-06-22T13:10:22;3.20;;;2.65;;
26806;SDS011;14380;49.910;6.792;2023-06-22T13:12:48;3.55;;;2.25;;
26806;SDS011;14380;49.910;6.792;2023-06-22T13:15:16;3.17;;;2.22;;
26806;SDS011;14380;49.910;6.792;2023-06-22T13:17:43;2.67;;;2.20;;
26806;SDS011;14380;49.910;6.792;2023-06-22T13:20:09;3.20;;;2.22;;
26806;SDS011;14380;49.910;6.792;2023-06-22T13:22:36;3.05;;;2.30;;
26806;SDS011;14380;49.910;6.792;2023-06-22T13:25:07;2.95;;;2.13;;
26806;SDS011;14380;49.910;6.792;2023-06-22T13:27:37;3.30;;;2.58;;
26806;SDS011;14380;49.910;6.792;2023-06-22T13:30:03;3.58;;;2.20;;
26806;SDS011;14380;49.910;6.792;2023-06-22T13:32:32;5.68;;;2.70;;
26806;SDS011;14380;49.910;6.792;2023-06-22T13:34:58;3.83;;;3.17;;
26806;SDS011;14380;49.910;6.792;2023-06-22T13:37:25;2.40;;;1.90;;
26806;SDS011;14380;49.910;6.792;2023-06-22T13:39:52;4.25;;;2.72;;
26806;SDS011;14380;49.910;6.792;2023-06-22T13:42:21;3.10;;;2.25;;
26806;SDS011;14380;49.910;6.792;2023-06-22T13:44:47;3.60;;;2.08;;
26806;SDS011;14380;49.910;6.792;2023-06-22T13:47:14;2.28;;;1.42;;
26806;SDS011;14380;49.910;6.792;2023-06-22T13:49:41;2.10;;;1.45;;
26806;SDS011;14380;49.910;6.792;2023-06-22T13:52:08;1.85;;;1.50;;
26806;SDS011;14380;49.910;6.792;2023-06-22T13:54:37;3.70;;;1.80;;
26806;SDS011;14380;49.910;6.792;2023-06-22T13:57:04;1.88;;;1.20;;
26806;SDS011;14380;49.910;6.792;2023-06-22T13:59:31;2.15;;;1.20;;
26806;SDS011;14380;49.910;6.792;2023-06-22T14:01:57;2.17;;;1.40;;
26806;SDS011;14380;49.910;6.792;2023-06-22T14:04:24;1.30;;;1.17;;
26806;SDS011;14380;49.910;6.792;2023-06-22T14:06:52;1.45;;;0.90;;
26806;SDS011;14380;49.910;6.792;2023-06-22T14:09:18;1.60;;;0.73;;
26806;SDS011;14380;49.910;6.792;2023-06-22T14:11:44;3.42;;;1.45;;
26806;SDS011;14380;49.910;6.792;2023-06-22T14:14:11;1.52;;;1.08;;
26806;SDS011;14380;49.910;6.792;2023-06-22T14:16:37;1.25;;;0.98;;
26806;SDS011;14380;49.910;6.792;2023-06-22T14:19:04;1.85;;;0.50;;
26806;SDS011;14380;49.910;6.792;2023-06-22T14:21:30;1.73;;;1.13;;
26806;SDS011;14380;49.910;6.792;2023-06-22T14:23:58;1.20;;;1.10;;
26806;SDS011;14380;49.910;6.792;2023-06-22T14:26:25;2.90;;;1.48;;
26806;SDS011;14380;49.910;6.792;2023-06-22T14:28:51;1.65;;;0.75;;
26806;SDS011;14380;49.910;6.792;2023-06-22T14:31:19;3.13;;;1.00;;
26806;SDS011;14380;49.910;6.792;2023-06-22T14:33:46;2.40;;;1.15;;
26806;SDS011;14380;49.910;6.792;2023-06-22T14:36:14;2.78;;;0.90;;
26806;SDS011;14380;49.910;6.792;2023-06-22T14:38:41;2.20;;;1.25;;
26806;SDS011;14380;49.910;6.792;2023-06-22T14:41:09;0.75;;;0.65;;
26806;SDS011;14380;49.910;6.792;2023-06-22T14:43:35;1.17;;;0.80;;
26806;SDS011;14380;49.910;6.792;2023-06-22T14:46:02;0.82;;;0.73;;
26806;SDS011;14380;49.910;6.792;2023-06-22T14:48:28;1.10;;;0.80;;